Time;durP1;ratioP1;P1;durP2;ratioP2;P2;SDS_P1;SDS_P2;PMS_P1;PMS_P2;Temp;Humidity;BMP_temperature;BMP_pressure;BME280_temperature;BME280_humidity;BME280_pressure;Samples;Min_cycle;Max_cycle;Signal;HPM_P1;HPM_P2
2022/07/19 00:00:32;;;;;;;3.03;1.70;;;25.80;72.20;;;;;;4989698;28;20113;-73
2022/07/19 00:02:58;;;;;;;3.83;1.75;;;25.80;72.00;;;;;;4990200;28;20551;-73
2022/07/19 00:05:25;;;;;;;6.20;1.73;;;25.80;72.00;;;;;;4990194;28;20070;-73
2022/07/19 00:07:51;;;;;;;4.50;2.10;;;25.80;71.90;;;;;;4991517;28;20019;-73
2022/07/19 00:10:19;;;;;;;5.35;1.55;;;25.80;71.50;;;;;;4990677;28;20033;-73
2022/07/19 00:12:45;;;;;;;2.58;1.80;;;25.70;71.30;;;;;;4993857;28;20018;-73
2022/07/19 00:15:13;;;;;;;1.88;1.42;;;25.80;71.40;;;;;;4990856;28;20394;-73
2022/07/19 00:17:42;;;;;;;3.47;1.90;;;25.70;71.40;;;;;;4991465;28;20065;-73
2022/07/19 00:20:10;;;;;;;5.45;1.75;;;25.70;71.20;;;;;;4990596;28;20113;-73
2022/07/19 00:22:36;;;;;;;6.82;1.50;;;25.70;71.20;;;;;;4991265;28;20033;-73
2022/07/19 00:25:02;;;;;;;1.83;1.52;;;25.70;71.00;;;;;;4991005;28;20101;-73
2022/07/19 00:27:28;;;;;;;4.15;1.70;;;25.70;70.90;;;;;;4991180;28;20026;-73
2022/07/19 00:29:53;;;;;;;7.78;1.80;;;25.70;70.70;;;;;;4990891;28;20027;-73
2022/07/19 00:32:19;;;;;;;6.57;1.50;;;25.70;71.60;;;;;;4990973;28;20027;-73
2022/07/19 00:34:45;;;;;;;1.55;1.27;;;25.70;70.60;;;;;;4989678;28;20057;-73
2022/07/19 00:37:11;;;;;;;2.35;1.63;;;25.70;70.40;;;;;;4990669;28;20034;-72
2022/07/19 00:39:36;;;;;;;2.10;1.50;;;25.70;70.20;;;;;;4990816;28;20101;-73
2022/07/19 00:42:02;;;;;;;7.90;1.77;;;25.80;70.40;;;;;;4992338;28;20026;-74
2022/07/19 00:44:28;;;;;;;2.80;1.60;;;25.80;70.30;;;;;;4990878;28;20030;-73
2022/07/19 00:46:54;;;;;;;2.92;1.52;;;25.80;70.20;;;;;;4991149;28;20034;-72
2022/07/19 00:49:19;;;;;;;1.60;1.33;;;25.80;70.10;;;;;;4990931;28;20038;-71
2022/07/19 00:51:46;;;;;;;2.33;1.00;;;25.70;69.90;;;;;;4991091;28;20026;-72
2022/07/19 00:54:13;;;;;;;1.42;1.27;;;25.70;70.00;;;;;;4990949;28;20022;-72
2022/07/19 00:56:42;;;;;;;2.60;1.23;;;25.70;71.20;;;;;;4990657;28;20033;-72
2022/07/19 00:59:09;;;;;;;3.08;1.38;;;25.70;69.90;;;;;;4990705;28;20084;-72
2022/07/19 01:01:34;;;;;;;6.07;1.77;;;25.60;70.00;;;;;;4990755;28;20034;-72
2022/07/19 01:04:00;;;;;;;6.15;1.60;;;25.60;70.00;;;;;;4990635;28;20061;-72
2022/07/19 01:06:26;;;;;;;2.35;1.50;;;25.60;69.50;;;;;;4991920;28;20022;-73
2022/07/19 01:08:53;;;;;;;3.08;1.58;;;25.60;69.60;;;;;;4994151;28;20117;-73
2022/07/19 01:11:20;;;;;;;5.30;1.70;;;25.60;69.40;;;;;;4996825;28;20026;-73
2022/07/19 01:13:48;;;;;;;3.78;1.60;;;25.60;69.60;;;;;;4992591;28;20497;-73
2022/07/19 01:16:14;;;;;;;3.78;1.70;;;25.50;69.50;;;;;;4981807;28;20041;-73
2022/07/19 01:18:40;;;;;;;2.15;1.35;;;25.50;69.70;;;;;;4993040;28;20023;-73
2022/07/19 01:21:07;;;;;;;3.35;1.30;;;25.50;69.90;;;;;;4992719;28;20023;-73
2022/07/19 01:23:33;;;;;;;2.88;1.58;;;25.40;69.80;;;;;;4993092;28;20121;-73
2022/07/19 01:25:59;;;;;;;3.30;1.65;;;25.40;69.60;;;;;;4993814;28;20027;-73
2022/07/19 01:28:25;;;;;;;4.68;1.60;;;25.40;69.80;;;;;;4993181;28;20046;-72
2022/07/19 01:30:50;;;;;;;2.50;1.50;;;25.30;70.10;;;;;;4988904;28;20018;-72
2022/07/19 01:33:17;;;;;;;2.63;1.50;;;25.30;70.20;;;;;;4993731;28;20027;-72
2022/07/19 01:35:42;;;;;;;12.63;1.50;;;25.30;70.10;;;;;;4993888;28;20130;-72
2022/07/19 01:38:08;;;;;;;2.05;1.52;;;25.20;70.20;;;;;;4993872;28;20625;-72
2022/07/19 01:40:34;;;;;;;8.35;1.50;;;25.20;70.40;;;;;;4993578;28;20037;-73
2022/07/19 01:43:00;;;;;;;9.13;2.08;;;25.20;70.40;;;;;;4996270;28;20065;-73
2022/07/19 01:45:45;;;;;;;5.32;1.48;;;25.10;70.60;;;;;;4992292;28;20054;-74
2022/07/19 01:48:11;;;;;;;1.88;1.45;;;25.10;70.90;;;;;;4993646;28;20037;-73
2022/07/19 01:50:36;;;;;;;4.45;1.52;;;25.10;70.60;;;;;;4993195;28;20030;-73
2022/07/19 01:53:02;;;;;;;2.33;1.67;;;25.00;70.60;;;;;;4993580;28;20023;-72
2022/07/19 01:55:28;;;;;;;2.03;1.45;;;25.00;70.80;;;;;;4993360;28;20105;-72
2022/07/19 01:57:54;;;;;;;1.67;1.58;;;25.00;71.00;;;;;;4993726;28;20042;-72
2022/07/19 02:00:19;;;;;;;2.95;1.52;;;25.00;70.80;;;;;;4986299;28;20023;-73
2022/07/19 02:02:45;;;;;;;5.10;1.45;;;25.00;71.00;;;;;;4993259;28;20050;-72
2022/07/19 02:05:11;;;;;;;2.42;1.77;;;25.00;70.80;;;;;;4993261;28;20030;-72
2022/07/19 02:07:37;;;;;;;5.10;1.85;;;25.00;71.00;;;;;;4993454;28;20121;-72
2022/07/19 02:10:04;;;;;;;3.95;1.80;;;25.00;70.90;;;;;;4992597;28;20030;-72
2022/07/19 02:12:31;;;;;;;2.92;1.67;;;25.00;70.80;;;;;;4996122;28;20080;-73
2022/07/19 02:14:56;;;;;;;4.97;1.60;;;25.00;71.00;;;;;;4992981;28;20600;-73
2022/07/19 02:17:22;;;;;;;6.55;1.63;;;25.00;71.00;;;;;;4991387;28;20412;-73
2022/07/19 02:19:48;;;;;;;1.95;1.23;;;25.00;71.00;;;;;;4993027;28;20038;-73
2022/07/19 02:22:13;;;;;;;3.03;1.65;;;24.90;70.70;;;;;;4992926;28;20497;-73
2022/07/19 02:24:42;;;;;;;2.90;1.60;;;24.90;70.80;;;;;;4992693;28;20057;-73
2022/07/19 02:27:09;;;;;;;4.35;1.50;;;24.90;70.50;;;;;;4992786;28;20026;-72
2022/07/19 02:29:35;;;;;;;2.60;1.40;;;24.90;70.30;;;;;;4992669;28;20026;-73
2022/07/19 02:32:00;;;;;;;2.80;1.67;;;25.00;70.40;;;;;;4992885;28;20041;-72
2022/07/19 02:34:26;;;;;;;5.80;1.60;;;25.00;71.10;;;;;;4992538;28;20026;-72
2022/07/19 02:36:52;;;;;;;1.85;1.40;;;25.00;70.40;;;;;;4992868;28;20721;-73
2022/07/19 02:39:18;;;;;;;1.98;1.60;;;25.00;70.20;;;;;;4992471;28;20035;-73
2022/07/19 02:41:44;;;;;;;6.28;1.77;;;25.00;70.30;;;;;;4995299;28;20023;-72
2022/07/19 02:44:10;;;;;;;7.38;1.48;;;24.90;70.20;;;;;;4992542;28;20105;-74
2022/07/19 02:46:36;;;;;;;2.42;1.50;;;24.90;70.40;;;;;;4992272;28;20656;-73
2022/07/19 02:49:01;;;;;;;2.03;1.60;;;24.80;70.20;;;;;;4992264;28;20026;-73
2022/07/19 02:51:27;;;;;;;5.13;1.38;;;24.80;70.40;;;;;;4991388;28;20112;-73
2022/07/19 02:53:53;;;;;;;4.63;1.48;;;24.80;70.30;;;;;;4991025;28;20026;-72
2022/07/19 02:56:18;;;;;;;2.35;1.80;;;24.80;70.40;;;;;;4992504;28;20126;-73
2022/07/19 02:58:44;;;;;;;2.33;1.77;;;24.80;70.50;;;;;;4992449;28;20033;-73
2022/07/19 03:01:10;;;;;;;6.85;1.45;;;24.80;70.50;;;;;;4992151;28;20045;-73
2022/07/19 03:03:46;;;;;;;2.75;1.70;;;24.70;70.50;;;;;;4992353;28;20649;-73
2022/07/19 03:06:14;;;;;;;3.60;1.42;;;24.70;70.40;;;;;;4991660;28;20030;-73
2022/07/19 03:08:40;;;;;;;5.65;1.60;;;24.60;70.50;;;;;;4991125;28;20023;-73
2022/07/19 03:11:06;;;;;;;4.90;1.90;;;24.70;70.40;;;;;;4993235;28;20121;-72
2022/07/19 03:13:32;;;;;;;5.10;1.70;;;24.70;70.40;;;;;;4992129;28;20685;-72
2022/07/19 03:15:57;;;;;;;1.95;1.73;;;24.70;70.30;;;;;;4990587;28;20397;-72
2022/07/19 03:18:23;;;;;;;4.80;1.52;;;24.70;70.40;;;;;;4992099;28;20035;-72
2022/07/19 03:20:49;;;;;;;2.58;1.85;;;24.70;70.20;;;;;;4991685;28;20590;-74
2022/07/19 03:23:14;;;;;;;3.35;1.38;;;24.70;70.20;;;;;;4990744;28;20041;-73
2022/07/19 03:25:40;;;;;;;3.25;1.58;;;24.70;70.00;;;;;;4991402;28;20037;-73
2022/07/19 03:28:06;;;;;;;3.92;1.70;;;24.70;69.90;;;;;;4992007;28;20478;-73
2022/07/19 03:30:31;;;;;;;5.30;1.52;;;24.70;69.90;;;;;;4991436;28;20030;-72
2022/07/19 03:32:58;;;;;;;3.30;1.58;;;24.70;69.90;;;;;;4991812;28;20022;-72
2022/07/19 03:35:24;;;;;;;2.88;1.40;;;24.70;69.80;;;;;;4991414;28;20030;-73
2022/07/19 03:37:50;;;;;;;2.05;1.60;;;24.80;69.80;;;;;;4992036;28;20065;-73
2022/07/19 03:40:16;;;;;;;4.43;1.58;;;24.80;69.70;;;;;;4990096;28;20038;-73
2022/07/19 03:42:41;;;;;;;4.60;1.70;;;24.80;69.50;;;;;;4992693;28;20119;-73
2022/07/19 03:45:08;;;;;;;7.50;1.58;;;24.80;69.70;;;;;;4991667;28;20029;-73
2022/07/19 03:47:33;;;;;;;3.03;1.50;;;24.70;69.70;;;;;;4991504;28;20495;-73
2022/07/19 03:49:59;;;;;;;3.20;1.63;;;24.70;69.80;;;;;;4991194;28;20022;-72
2022/07/19 03:52:25;;;;;;;2.35;1.60;;;24.70;69.70;;;;;;4991880;28;20066;-73
2022/07/19 03:54:51;;;;;;;4.53;1.50;;;24.70;69.80;;;;;;4991226;28;20014;-73
2022/07/19 03:57:17;;;;;;;5.05;1.73;;;24.80;69.50;;;;;;4991169;28;20049;-73
2022/07/19 03:59:43;;;;;;;3.08;1.55;;;24.80;69.80;;;;;;4991045;28;20033;-74
2022/07/19 04:02:08;;;;;;;3.10;1.50;;;24.80;69.60;;;;;;4991176;28;20027;-73
2022/07/19 04:04:34;;;;;;;3.33;1.50;;;24.80;69.50;;;;;;4989796;28;20105;-73
2022/07/19 04:07:00;;;;;;;5.95;1.73;;;24.80;69.60;;;;;;4991743;28;20037;-72
2022/07/19 04:09:26;;;;;;;3.17;1.33;;;24.80;69.70;;;;;;4989706;28;20030;-73
2022/07/19 04:11:51;;;;;;;5.22;1.40;;;24.80;69.70;;;;;;4992735;28;20031;-73
2022/07/19 04:14:17;;;;;;;2.40;1.48;;;24.80;69.70;;;;;;4990994;28;20457;-73
2022/07/19 04:16:43;;;;;;;1.83;1.30;;;24.80;69.70;;;;;;4989383;28;20042;-74
2022/07/19 04:19:08;;;;;;;10.20;1.92;;;24.90;69.60;;;;;;4989773;28;20498;-73
2022/07/19 04:21:34;;;;;;;6.05;1.50;;;24.90;69.20;;;;;;4989817;28;20501;-74
2022/07/19 04:24:00;;;;;;;6.25;1.75;;;25.00;69.30;;;;;;4991104;28;20442;-73
2022/07/19 04:26:26;;;;;;;2.25;1.60;;;25.00;69.10;;;;;;4990081;28;20105;-73
2022/07/19 04:28:51;;;;;;;2.92;1.33;;;25.00;69.10;;;;;;4990999;28;20046;-74
2022/07/19 04:31:17;;;;;;;5.25;1.55;;;25.00;69.30;;;;;;4990002;28;20027;-73
2022/07/19 04:33:43;;;;;;;4.47;1.20;;;25.00;69.30;;;;;;4989595;28;20129;-73
2022/07/19 04:36:08;;;;;;;3.03;1.50;;;25.00;69.50;;;;;;4989526;28;20070;-73
2022/07/19 04:38:34;;;;;;;4.03;2.00;;;25.10;69.50;;;;;;4991429;28;20493;-73
2022/07/19 04:41:00;;;;;;;2.63;1.40;;;25.10;69.30;;;;;;4992305;28;20117;-73
2022/07/19 04:43:26;;;;;;;3.28;1.90;;;25.10;70.00;;;;;;4994914;28;20039;-73
2022/07/19 04:45:51;;;;;;;4.45;1.52;;;25.10;69.50;;;;;;4994680;28;20019;-74
2022/07/19 04:48:17;;;;;;;3.38;1.63;;;25.10;69.40;;;;;;4975482;28;20031;-73
2022/07/19 04:50:43;;;;;;;4.93;1.92;;;25.10;69.70;;;;;;4992974;28;20053;-73
2022/07/19 04:53:09;;;;;;;2.80;1.60;;;25.20;69.50;;;;;;4993396;28;20061;-73
2022/07/19 04:55:36;;;;;;;4.97;1.60;;;25.20;69.60;;;;;;4994435;28;20084;-74
2022/07/19 04:58:02;;;;;;;3.40;1.30;;;25.20;68.70;;;;;;4994586;28;20046;-73
2022/07/19 05:00:28;;;;;;;3.20;1.77;;;25.30;69.60;;;;;;4993002;28;20022;-73
2022/07/19 05:02:55;;;;;;;10.73;1.83;;;25.30;69.70;;;;;;4993233;28;20042;-72
2022/07/19 05:05:21;;;;;;;1.95;1.60;;;25.30;69.30;;;;;;4994314;28;20033;-72
2022/07/19 05:07:47;;;;;;;8.48;1.80;;;25.40;69.70;;;;;;4993478;28;20027;-73
2022/07/19 05:10:13;;;;;;;3.63;1.67;;;25.40;69.10;;;;;;4994232;28;20034;-73
2022/07/19 05:12:40;;;;;;;4.13;1.50;;;25.40;69.00;;;;;;4995242;28;20054;-74
2022/07/19 05:15:07;;;;;;;4.20;1.80;;;25.50;68.60;;;;;;4994014;28;20019;-73
2022/07/19 05:17:33;;;;;;;1.40;1.30;;;25.50;68.60;;;;;;4994271;28;20038;-74
2022/07/19 05:19:59;;;;;;;5.25;1.67;;;25.60;68.90;;;;;;4993952;28;20030;-74
2022/07/19 05:22:25;;;;;;;3.08;1.70;;;25.60;68.80;;;;;;4994282;28;20042;-74
2022/07/19 05:24:55;;;;;;;3.30;1.75;;;25.70;68.70;;;;;;4992928;28;20037;-73
2022/07/19 05:27:21;;;;;;;3.55;1.65;;;25.80;68.50;;;;;;4994237;28;20545;-73
2022/07/19 05:29:48;;;;;;;9.90;1.88;;;25.80;68.50;;;;;;4993808;28;20026;-73
2022/07/19 05:32:13;;;;;;;2.40;1.58;;;25.90;68.70;;;;;;4985406;28;20031;-73
2022/07/19 05:34:39;;;;;;;4.28;2.17;;;25.90;68.20;;;;;;4993905;28;20026;-74
2022/07/19 05:37:05;;;;;;;2.65;1.60;;;26.00;68.20;;;;;;4993826;28;20046;-74
2022/07/19 05:39:31;;;;;;;4.00;1.60;;;26.00;68.00;;;;;;4993912;28;20114;-74
2022/07/19 05:41:57;;;;;;;2.92;1.50;;;26.10;69.00;;;;;;4996409;28;20101;-74
2022/07/19 05:44:23;;;;;;;4.60;1.75;;;26.20;68.10;;;;;;4993563;28;20620;-74
2022/07/19 05:46:48;;;;;;;7.50;1.80;;;26.20;67.60;;;;;;4994125;28;20026;-74
2022/07/19 05:49:14;;;;;;;3.20;1.80;;;26.30;67.60;;;;;;4993449;28;20503;-74
2022/07/19 05:51:40;;;;;;;4.45;1.92;;;26.40;67.50;;;;;;4993154;28;20397;-74
2022/07/19 05:54:07;;;;;;;3.88;1.80;;;26.40;67.00;;;;;;4993353;28;20026;-74
2022/07/19 05:56:34;;;;;;;5.60;1.60;;;26.50;66.60;;;;;;4993754;28;20030;-75
2022/07/19 05:59:01;;;;;;;3.90;2.00;;;26.60;66.50;;;;;;4993289;28;20073;-74
2022/07/19 06:01:27;;;;;;;12.25;1.98;;;26.60;66.50;;;;;;4981846;28;20010;-74
2022/07/19 06:03:59;;;;;;;7.10;1.55;;;26.70;66.50;;;;;;4993311;28;20058;-72
2022/07/19 06:06:27;;;;;;;3.13;1.83;;;26.80;66.20;;;;;;4992395;28;20034;-72
2022/07/19 06:08:53;;;;;;;5.97;1.67;;;26.80;65.70;;;;;;4991702;28;20133;-74
2022/07/19 06:11:19;;;;;;;10.82;1.88;;;26.90;65.60;;;;;;4995390;28;20461;-72
2022/07/19 06:13:46;;;;;;;2.65;1.58;;;26.90;65.30;;;;;;4993431;28;20018;-72
2022/07/19 06:16:11;;;;;;;4.63;1.58;;;27.00;65.20;;;;;;4991586;28;20073;-74
2022/07/19 06:18:37;;;;;;;7.40;2.10;;;27.00;64.80;;;;;;4991941;28;20061;-73
2022/07/19 06:21:14;;;;;;;7.97;1.75;;;27.10;64.90;;;;;;4993020;28;20495;-74
2022/07/19 06:23:41;;;;;;;6.70;1.50;;;27.20;64.70;;;;;;4993285;28;20033;-74
2022/07/19 06:26:09;;;;;;;6.88;1.45;;;27.20;64.60;;;;;;4992847;28;20053;-74
2022/07/19 06:28:35;;;;;;;8.00;1.92;;;27.30;64.40;;;;;;4992654;28;20519;-73
2022/07/19 06:31:01;;;;;;;7.35;1.85;;;27.30;64.60;;;;;;4992608;28;20097;-77
2022/07/19 06:33:27;;;;;;;6.55;1.70;;;27.40;64.60;;;;;;4992935;28;20030;-74
2022/07/19 06:35:52;;;;;;;3.15;1.60;;;27.50;64.00;;;;;;4992738;28;20477;-73
2022/07/19 06:38:18;;;;;;;6.40;1.80;;;27.50;64.40;;;;;;4992684;28;20046;-74
2022/07/19 06:40:44;;;;;;;2.80;1.75;;;27.50;64.10;;;;;;4993950;28;20088;-75
2022/07/19 06:43:10;;;;;;;3.42;1.70;;;27.60;64.10;;;;;;4993752;28;20059;-75
2022/07/19 06:45:36;;;;;;;4.07;1.42;;;27.70;63.90;;;;;;4990801;28;20065;-76
2022/07/19 06:48:03;;;;;;;5.57;1.80;;;27.70;64.10;;;;;;4991399;28;20374;-74
2022/07/19 06:50:28;;;;;;;8.13;1.88;;;27.70;63.70;;;;;;4992156;28;20386;-75
2022/07/19 06:52:54;;;;;;;4.03;1.70;;;27.80;63.20;;;;;;4991337;28;20028;-75
2022/07/19 06:55:20;;;;;;;2.17;1.48;;;27.90;63.20;;;;;;4992442;28;20088;-75
2022/07/19 06:57:46;;;;;;;5.20;2.08;;;27.90;63.00;;;;;;4991251;28;20035;-75
2022/07/19 07:00:13;;;;;;;2.72;1.65;;;28.00;63.40;;;;;;4990850;28;20030;-72
2022/07/19 07:02:41;;;;;;;4.10;1.90;;;28.00;63.10;;;;;;4991683;28;20502;-71
2022/07/19 07:05:10;;;;;;;2.83;1.50;;;28.00;62.90;;;;;;4989834;28;20045;-73
2022/07/19 07:07:36;;;;;;;5.18;1.70;;;28.10;63.10;;;;;;4990293;28;20189;-73
2022/07/19 07:10:06;;;;;;;3.83;1.88;;;28.20;62.70;;;;;;4990068;28;20113;-74
2022/07/19 07:12:33;;;;;;;2.53;1.40;;;28.20;62.00;;;;;;4994392;28;20026;-73
2022/07/19 07:14:59;;;;;;;2.40;1.27;;;28.30;62.10;;;;;;4990209;28;20028;-73
2022/07/19 07:17:25;;;;;;;3.35;1.70;;;28.30;61.90;;;;;;4990577;28;20034;-72
2022/07/19 07:19:50;;;;;;;3.70;1.40;;;28.40;62.10;;;;;;4990202;28;20057;-72
2022/07/19 07:22:16;;;;;;;6.30;1.77;;;28.40;62.00;;;;;;4990065;28;20022;-71
2022/07/19 07:24:42;;;;;;;2.70;1.30;;;28.50;61.80;;;;;;4988662;28;20065;-71
2022/07/19 07:27:07;;;;;;;1.90;1.30;;;28.60;61.50;;;;;;4990303;28;20477;-71
2022/07/19 07:29:33;;;;;;;4.50;1.50;;;28.60;61.10;;;;;;4988856;28;20477;-73
2022/07/19 07:31:59;;;;;;;3.35;1.30;;;28.70;61.60;;;;;;4990444;28;20096;-72
2022/07/19 07:34:25;;;;;;;4.55;1.80;;;28.80;61.60;;;;;;4990289;28;20034;-71
2022/07/19 07:36:50;;;;;;;7.07;1.52;;;28.80;62.20;;;;;;4991261;28;20454;-70
2022/07/19 07:39:16;;;;;;;4.20;1.52;;;28.90;61.60;;;;;;4991212;28;20085;-71
2022/07/19 07:41:42;;;;;;;3.33;1.73;;;28.90;61.70;;;;;;4994065;28;20030;-72
2022/07/19 07:44:08;;;;;;;4.30;1.58;;;29.00;61.70;;;;;;4989685;28;20026;-71
2022/07/19 07:46:34;;;;;;;3.47;1.40;;;29.10;61.70;;;;;;4982875;28;20388;-71
2022/07/19 07:48:59;;;;;;;7.93;1.63;;;29.10;61.50;;;;;;4990023;28;20389;-72
2022/07/19 07:51:25;;;;;;;13.02;1.80;;;29.20;61.90;;;;;;4989319;28;20022;-71
2022/07/19 07:53:51;;;;;;;3.10;1.35;;;29.20;61.30;;;;;;4991418;28;20088;-74
2022/07/19 07:56:17;;;;;;;2.67;1.40;;;29.30;61.40;;;;;;4990104;28;20081;-72
2022/07/19 07:58:43;;;;;;;3.47;1.63;;;29.30;61.10;;;;;;4990365;28;20457;-72
2022/07/19 08:01:08;;;;;;;4.00;1.63;;;29.40;61.20;;;;;;4991166;28;20029;-72
2022/07/19 08:03:34;;;;;;;2.58;1.35;;;29.50;61.40;;;;;;4991526;28;20054;-72
2022/07/19 08:06:00;;;;;;;4.95;1.55;;;29.50;61.30;;;;;;4987893;28;20022;-71
2022/07/19 08:08:26;;;;;;;4.47;1.52;;;29.50;61.60;;;;;;4988676;28;20370;-72
2022/07/19 08:10:56;;;;;;;4.78;1.33;;;29.60;61.10;;;;;;4992445;28;20581;-72
2022/07/19 08:13:22;;;;;;;3.78;1.60;;;29.70;61.50;;;;;;4990975;28;20049;-71
2022/07/19 08:15:49;;;;;;;3.50;1.50;;;29.80;61.40;;;;;;4991360;28;20030;-72
2022/07/19 08:18:14;;;;;;;2.25;1.40;;;29.90;61.20;;;;;;4994232;28;20190;-72
2022/07/19 08:20:40;;;;;;;6.03;1.75;;;29.90;60.90;;;;;;4994908;28;20029;-72
2022/07/19 08:23:06;;;;;;;3.75;1.23;;;30.00;61.00;;;;;;4995453;28;20023;-71
2022/07/19 08:25:35;;;;;;;1.77;1.48;;;30.00;60.40;;;;;;4995227;28;20030;-72
2022/07/19 08:28:01;;;;;;;4.93;1.33;;;30.10;60.70;;;;;;4993973;28;20027;-71
2022/07/19 08:30:28;;;;;;;1.25;1.13;;;30.10;60.70;;;;;;4993556;28;20042;-71
2022/07/19 08:32:53;;;;;;;3.05;1.73;;;30.20;60.90;;;;;;4994645;28;20035;-72
2022/07/19 08:35:19;;;;;;;3.13;1.70;;;30.30;60.90;;;;;;4992199;28;20105;-72
2022/07/19 08:37:45;;;;;;;6.82;1.80;;;30.30;61.40;;;;;;4994475;28;20034;-72
2022/07/19 08:40:11;;;;;;;3.15;1.27;;;30.30;61.10;;;;;;4994626;28;20106;-72
2022/07/19 08:42:37;;;;;;;2.67;1.50;;;30.50;61.00;;;;;;4994912;28;20029;-73
2022/07/19 08:45:06;;;;;;;4.63;1.35;;;30.50;60.60;;;;;;4994658;28;20026;-73
2022/07/19 08:47:32;;;;;;;8.82;1.80;;;30.60;60.40;;;;;;4994319;28;20027;-72
2022/07/19 08:49:59;;;;;;;2.58;1.73;;;30.70;60.60;;;;;;4994047;28;20482;-73
2022/07/19 08:52:26;;;;;;;2.55;1.80;;;30.80;60.10;;;;;;4992054;28;20663;-72
2022/07/19 08:54:52;;;;;;;3.45;1.70;;;30.90;59.80;;;;;;4992476;28;20489;-72
2022/07/19 09:00:04;;;;;;;2.33;1.73;;;30.90;59.90;;;;;;4992331;28;20065;-72
2022/07/19 09:02:29;;;;;;;5.70;1.55;;;31.00;60.10;;;;;;4992571;28;20033;-72
2022/07/19 09:05:07;;;;;;;4.63;1.80;;;31.10;59.90;;;;;;4991696;28;20030;-73
2022/07/19 09:07:37;;;;;;;4.97;1.55;;;31.10;59.50;;;;;;4994228;28;20499;-71
2022/07/19 09:10:19;;;;;;;4.55;1.48;;;31.20;59.50;;;;;;4993794;28;20033;-73
2022/07/19 09:13:08;;;;;;;3.38;1.65;;;31.20;59.30;;;;;;4995314;28;20034;-73
2022/07/19 09:15:37;;;;;;;2.65;1.75;;;31.20;59.40;;;;;;4993972;28;20027;-71
2022/07/19 09:18:12;;;;;;;1.98;1.70;;;31.30;59.60;;;;;;4992792;28;20034;-72
2022/07/19 09:20:38;;;;;;;3.15;2.03;;;31.30;59.40;;;;;;4993774;28;20030;-72
2022/07/19 09:23:05;;;;;;;5.75;2.10;;;31.40;60.00;;;;;;4993671;28;20370;-72
2022/07/19 09:25:39;;;;;;;3.28;1.65;;;31.50;59.80;;;;;;4992006;28;20030;-72
2022/07/19 09:28:05;;;;;;;2.33;1.73;;;31.50;59.60;;;;;;4990570;28;20668;-73
2022/07/19 09:30:42;;;;;;;3.67;1.60;;;31.50;59.30;;;;;;4992106;28;20109;-72
2022/07/19 09:33:14;;;;;;;4.38;1.88;;;31.60;59.40;;;;;;4994390;28;20018;-72
2022/07/19 09:35:47;;;;;;;3.58;1.83;;;31.60;59.90;;;;;;4989628;28;20034;-73
2022/07/19 09:38:21;;;;;;;7.55;1.80;;;31.70;60.40;;;;;;4990779;28;20061;-72
2022/07/19 09:41:09;;;;;;;2.33;1.60;;;31.80;59.70;;;;;;4989600;28;20450;-71
2022/07/19 09:43:55;;;;;;;5.60;2.17;;;31.80;59.80;;;;;;4987557;28;20031;-72
2022/07/19 09:46:35;;;;;;;3.85;1.92;;;31.90;59.80;;;;;;4990885;28;20485;-72
2022/07/19 09:49:14;;;;;;;2.97;1.65;;;31.90;59.50;;;;;;4991655;28;20051;-72
2022/07/19 09:51:49;;;;;;;1.90;1.80;;;32.00;59.70;;;;;;4990595;28;20025;-72
2022/07/19 09:54:18;;;;;;;3.22;1.60;;;32.00;59.60;;;;;;4991465;28;20034;-72
2022/07/19 09:56:46;;;;;;;4.85;2.00;;;32.10;59.60;;;;;;4985999;28;20169;-72
2022/07/19 09:59:12;;;;;;;2.25;1.83;;;32.10;59.40;;;;;;4990219;28;20109;-72
2022/07/19 10:01:39;;;;;;;1.70;1.60;;;32.20;59.40;;;;;;4991512;28;20029;-73
2022/07/19 10:04:09;;;;;;;2.65;1.98;;;32.30;59.80;;;;;;4991246;28;20050;-72
2022/07/19 10:06:35;;;;;;;3.58;2.00;;;32.40;60.20;;;;;;4993298;28;20027;-73
2022/07/19 10:09:06;;;;;;;2.08;1.70;;;32.40;59.60;;;;;;4993088;28;20034;-72
2022/07/19 10:11:33;;;;;;;2.50;1.70;;;32.50;59.00;;;;;;4995681;28;20022;-73
2022/07/19 10:13:59;;;;;;;5.15;1.80;;;32.70;59.40;;;;;;4992421;28;20114;-72
2022/07/19 10:16:35;;;;;;;3.55;1.90;;;32.80;58.20;;;;;;4992994;28;20260;-71
2022/07/19 10:19:34;;;;;;;2.03;1.80;;;32.90;58.70;;;;;;4992702;28;20031;-72
2022/07/19 10:22:01;;;;;;;3.38;1.85;;;32.90;58.70;;;;;;4991459;28;20022;-74
2022/07/19 10:24:43;;;;;;;3.05;1.65;;;32.80;61.20;;;;;;4992677;28;20034;-70
2022/07/19 10:27:09;;;;;;;;;;;32.90;63.60;;;;;;4993493;28;20030;-73
2022/07/19 10:29:34;;;;;;;6.72;2.30;;;32.80;63.80;;;;;;4992223;28;20450;-71
2022/07/19 10:32:06;;;;;;;5.55;1.85;;;32.50;63.50;;;;;;4991291;28;20497;-72
2022/07/19 10:34:32;;;;;;;9.30;2.25;;;32.20;63.80;;;;;;4992350;28;20157;-73
2022/07/19 10:36:58;;;;;;;4.88;1.70;;;32.20;65.20;;;;;;4992578;28;20070;-72
2022/07/19 10:39:39;;;;;;;8.07;2.33;;;31.90;65.30;;;;;;4991504;28;20108;-71
2022/07/19 10:42:16;;;;;;;9.82;2.35;;;31.60;65.30;;;;;;4993811;28;20167;-73
2022/07/19 10:45:02;;;;;;;8.38;1.95;;;31.50;65.70;;;;;;4992341;28;20034;-72
2022/07/19 10:47:35;;;;;;;18.48;2.90;;;31.50;69.90;;;;;;4984461;28;20026;-72
2022/07/19 10:50:16;;;;;;;9.68;2.15;;;31.60;69.00;;;;;;4991941;28;20513;-71
2022/07/19 10:52:42;;;;;;;3.42;2.40;;;31.70;66.50;;;;;;4991233;28;20041;-72
2022/07/19 10:57:49;;;;;;;5.00;2.30;;;31.80;64.40;;;;;;4992273;28;20046;-73
2022/07/19 11:00:23;;;;;;;11.43;2.00;;;31.70;64.70;;;;;;4992027;28;20034;-73
2022/07/19 11:02:51;;;;;;;6.03;2.00;;;31.50;66.10;;;;;;4992113;28;20696;-73
2022/07/19 11:05:24;;;;;;;4.72;1.73;;;31.50;65.10;;;;;;4991114;28;20105;-72
2022/07/19 11:07:52;;;;;;;4.78;2.10;;;31.50;63.50;;;;;;4990939;28;20022;-73
2022/07/19 11:10:28;;;;;;;4.55;2.00;;;31.50;64.50;;;;;;4990490;28;20431;-71
2022/07/19 11:12:56;;;;;;;8.00;2.33;;;31.60;67.70;;;;;;4993437;28;20065;-73
2022/07/19 11:15:28;;;;;;;3.05;1.85;;;31.50;69.40;;;;;;4991784;28;20049;-72
2022/07/19 11:17:59;;;;;;;5.95;2.20;;;31.70;69.40;;;;;;4990721;28;20038;-73
2022/07/19 11:20:27;;;;;;;7.18;2.25;;;31.70;68.80;;;;;;4991603;28;20034;-74
2022/07/19 11:22:55;;;;;;;3.22;1.92;;;31.70;68.10;;;;;;4991552;28;20027;-71
2022/07/19 11:25:31;;;;;;;4.65;1.90;;;31.90;63.70;;;;;;4991454;28;20058;-72
2022/07/19 11:27:58;;;;;;;3.75;1.88;;;32.20;64.40;;;;;;4991755;28;20026;-71
2022/07/19 11:30:26;;;;;;;9.02;2.00;;;32.20;68.50;;;;;;4991508;28;20385;-74
2022/07/19 11:33:04;;;;;;;5.30;1.80;;;32.30;69.10;;;;;;4987803;28;20026;-72
2022/07/19 11:35:30;;;;;;;12.32;2.63;;;32.20;68.50;;;;;;4986472;28;20037;-72
2022/07/19 11:37:58;;;;;;;9.57;2.55;;;32.30;67.10;;;;;;4991685;28;20042;-73
2022/07/19 11:40:31;;;;;;;9.85;2.00;;;32.20;70.10;;;;;;4990530;28;20033;-72
2022/07/19 11:42:57;;;;;;;6.22;2.13;;;32.10;70.40;;;;;;4993859;28;20088;-72
2022/07/19 11:45:25;;;;;;;9.35;2.47;;;31.90;70.70;;;;;;4990879;28;20026;-75
2022/07/19 11:47:53;;;;;;;7.03;2.13;;;31.90;74.40;;;;;;4990137;28;20501;-74
2022/07/19 11:50:21;;;;;;;7.75;2.45;;;31.70;71.00;;;;;;4988851;28;20027;-74
2022/07/19 11:52:58;;;;;;;7.85;2.25;;;31.70;70.70;;;;;;4990689;28;20109;-73
2022/07/19 11:55:36;;;;;;;4.70;1.98;;;31.70;72.20;;;;;;4990167;28;20026;-72
2022/07/19 11:58:07;;;;;;;5.65;1.90;;;31.80;73.50;;;;;;4990572;28;20034;-74
2022/07/19 12:00:33;;;;;;;6.57;2.03;;;31.80;75.60;;;;;;4989802;28;20497;-73
2022/07/19 12:03:06;;;;;;;3.58;2.10;;;32.00;72.20;;;;;;4990457;28;20049;-71
2022/07/19 12:05:39;;;;;;;4.80;2.30;;;32.20;72.50;;;;;;4989356;28;20053;-72
2022/07/19 12:08:09;;;;;;;6.55;2.05;;;32.20;72.20;;;;;;4991339;28;20088;-73
2022/07/19 12:10:51;;;;;;;6.93;2.15;;;32.70;70.10;;;;;;4989408;28;20169;-72
2022/07/19 12:13:33;;;;;;;6.13;1.83;;;34.00;69.20;;;;;;4989639;28;20428;-72
2022/07/19 12:16:11;;;;;;;4.55;1.90;;;35.40;65.80;;;;;;4989028;28;20034;-75
2022/07/19 12:18:49;;;;;;;8.07;1.77;;;37.10;58.90;;;;;;4987947;28;20035;-74
2022/07/19 12:21:18;;;;;;;2.90;1.63;;;39.30;52.80;;;;;;4988799;28;20088;-73
2022/07/19 12:24:12;;;;;;;2.92;1.63;;;41.40;51.60;;;;;;4989717;28;20071;-74
2022/07/19 12:26:44;;;;;;;5.05;1.63;;;43.80;48.20;;;;;;4990814;28;20028;-74
2022/07/19 12:29:45;;;;;;;5.07;1.60;;;45.70;46.30;;;;;;4989474;28;20534;-74
2022/07/19 12:32:15;;;;;;;2.85;1.50;;;47.50;44.50;;;;;;4992241;28;20046;-74
2022/07/19 12:34:45;;;;;;;;;;;49.30;42.50;;;;;;4991166;28;20030;-73
2022/07/19 12:37:24;;;;;;;1.63;1.45;;;50.40;41.50;;;;;;4991117;28;19912;-74
2022/07/19 12:40:18;;;;;;;3.25;1.65;;;51.10;39.80;;;;;;4990299;28;20174;-74
2022/07/19 12:42:48;;;;;;;3.70;1.70;;;52.00;39.30;;;;;;4993427;28;20069;-76
2022/07/19 12:45:20;;;;;;;6.30;1.80;;;52.30;39.20;;;;;;4989367;28;20073;-74
2022/07/19 12:47:47;;;;;;;2.25;1.98;;;52.90;37.40;;;;;;4991052;28;20027;-75
2022/07/19 12:50:41;;;;;;;6.53;2.30;;;52.70;37.40;;;;;;4990668;28;20389;-73
2022/07/19 12:53:09;;;;;;;2.78;2.00;;;52.60;37.10;;;;;;4988860;28;20037;-73
2022/07/19 12:55:37;;;;;;;2.92;2.00;;;52.90;37.40;;;;;;4988899;28;20460;-74
2022/07/19 12:58:05;;;;;;;2.60;2.50;;;53.70;36.30;;;;;;4990794;28;20570;-72